createdAt,value
2019-01-08T00:02:08.134Z,19.33
2019-01-08T00:04:36.097Z,21.23
2019-01-08T00:07:03.988Z,20.87
2019-01-08T00:09:31.843Z,21.07
2019-01-08T00:11:59.713Z,22.50
2019-01-08T00:14:27.594Z,18.80
2019-01-08T00:16:55.464Z,19.80
2019-01-08T00:19:23.381Z,21.20
2019-01-08T00:21:51.293Z,22.23
2019-01-08T00:24:19.202Z,18.10
2019-01-08T00:26:47.118Z,19.57
2019-01-08T00:29:15.037Z,22.17
2019-01-08T00:31:42.891Z,19.13
2019-01-08T00:34:10.782Z,17.10
2019-01-08T00:36:38.657Z,23.63
2019-01-08T00:39:07.178Z,20.30
2019-01-08T00:41:35.018Z,24.17
2019-01-08T00:44:02.893Z,19.47
2019-01-08T00:46:30.849Z,21.00
2019-01-08T00:48:58.808Z,21.27
2019-01-08T00:51:26.743Z,19.17
2019-01-08T00:53:54.584Z,18.83
2019-01-08T00:56:22.460Z,20.70
2019-01-08T00:58:51.611Z,22.00
2019-01-08T01:01:19.805Z,20.03
2019-01-08T01:03:47.723Z,19.93
2019-01-08T01:06:15.547Z,18.30
2019-01-08T01:08:43.392Z,17.60
2019-01-08T01:11:11.272Z,21.47
2019-01-08T01:13:39.157Z,19.73
2019-01-08T01:16:07.025Z,17.07
2019-01-08T01:18:34.954Z,20.03
2019-01-08T01:21:02.859Z,18.47
2019-01-08T01:23:30.736Z,20.10
2019-01-08T01:25:58.636Z,19.07
2019-01-08T01:28:26.546Z,21.20
2019-01-08T01:30:54.397Z,14.80
2019-01-08T01:33:22.253Z,15.40
2019-01-08T01:35:50.157Z,14.20
2019-01-08T01:38:18.028Z,16.80
2019-01-08T01:40:45.976Z,14.30
2019-01-08T01:43:13.851Z,11.80
2019-01-08T01:45:41.768Z,13.13
2019-01-08T01:48:09.714Z,13.50
2019-01-08T01:50:37.596Z,12.73
2019-01-08T01:53:05.471Z,13.63
2019-01-08T01:55:33.335Z,13.63
2019-01-08T01:58:01.204Z,12.47
2019-01-08T02:00:29.135Z,15.53
2019-01-08T02:02:57.119Z,14.47
2019-01-08T02:05:24.966Z,11.47
2019-01-08T02:07:52.807Z,11.17
2019-01-08T02:10:20.682Z,12.97
2019-01-08T02:12:48.580Z,14.10
2019-01-08T02:15:16.535Z,15.40
2019-01-08T02:17:44.370Z,12.93
2019-01-08T02:20:12.445Z,12.00
2019-01-08T02:22:40.342Z,13.27
2019-01-08T02:25:08.228Z,14.23
2019-01-08T02:27:36.372Z,14.40
2019-01-08T02:30:04.382Z,15.97
2019-01-08T02:32:32.208Z,14.27
2019-01-08T02:35:00.197Z,12.87
2019-01-08T02:37:30.604Z,13.53
2019-01-08T02:39:58.612Z,15.70
2019-01-08T02:42:26.906Z,12.73
2019-01-08T02:44:55.558Z,12.70
2019-01-08T02:47:23.470Z,13.87
2019-01-08T02:49:51.527Z,15.47
2019-01-08T02:52:19.380Z,12.03
2019-01-08T02:54:47.342Z,15.43
2019-01-08T02:57:15.290Z,12.03
2019-01-08T02:59:43.183Z,15.27
2019-01-08T03:02:11.278Z,14.47
2019-01-08T03:04:39.109Z,16.37
2019-01-08T03:07:06.944Z,14.13
2019-01-08T03:09:38.119Z,17.00
2019-01-08T03:12:06.007Z,13.40
2019-01-08T03:14:33.861Z,16.97
2019-01-08T03:17:01.783Z,14.60
2019-01-08T03:19:29.596Z,16.70
2019-01-08T03:21:57.600Z,13.80
2019-01-08T03:24:25.452Z,14.47
2019-01-08T03:26:53.380Z,14.00
2019-01-08T03:29:21.275Z,13.03
2019-01-08T03:31:49.140Z,13.13
2019-01-08T03:34:17.043Z,16.73
2019-01-08T03:36:44.938Z,14.53
2019-01-08T03:39:13.104Z,16.03
2019-01-08T03:41:41.035Z,14.87
2019-01-08T03:44:09.066Z,14.60
2019-01-08T03:46:36.914Z,14.57
2019-01-08T03:49:06.733Z,16.13
2019-01-08T03:51:34.901Z,13.00
2019-01-08T03:54:02.769Z,13.23
2019-01-08T03:56:30.611Z,14.10
2019-01-08T03:58:59.562Z,14.80
2019-01-08T04:01:27.462Z,13.77
2019-01-08T04:03:55.360Z,13.70
2019-01-08T04:06:23.220Z,14.03
2019-01-08T04:08:51.077Z,13.20
2019-01-08T04:11:18.898Z,14.00
2019-01-08T04:13:46.815Z,14.40
2019-01-08T04:16:14.684Z,11.53
2019-01-08T04:18:42.592Z,14.93
2019-01-08T04:21:10.464Z,15.97
2019-01-08T04:23:38.338Z,12.53
2019-01-08T04:26:06.155Z,13.13
2019-01-08T04:28:34.098Z,14.40
2019-01-08T04:31:01.994Z,15.70
2019-01-08T04:33:29.819Z,14.73
2019-01-08T04:35:57.885Z,14.40
2019-01-08T04:38:25.661Z,12.23
2019-01-08T04:40:53.498Z,14.90
2019-01-08T04:43:21.349Z,14.03
2019-01-08T04:45:49.176Z,13.30
2019-01-08T04:48:16.993Z,12.80
2019-01-08T04:50:44.970Z,13.70
2019-01-08T04:53:12.853Z,13.13
2019-01-08T04:55:40.733Z,13.57
2019-01-08T04:58:08.627Z,15.13
2019-01-08T05:00:36.498Z,15.07
2019-01-08T05:03:04.401Z,13.83
2019-01-08T05:05:32.314Z,13.77
2019-01-08T05:08:00.166Z,12.87
2019-01-08T05:10:29.191Z,12.70
2019-01-08T05:12:57.665Z,16.50
2019-01-08T05:15:25.512Z,17.13
2019-01-08T05:17:53.378Z,16.77
2019-01-08T05:20:21.204Z,13.43
2019-01-08T05:22:49.083Z,15.00
2019-01-08T05:25:16.937Z,16.00
2019-01-08T05:27:44.781Z,16.13
2019-01-08T05:30:12.655Z,11.37
2019-01-08T05:32:40.566Z,15.13
2019-01-08T05:35:08.865Z,13.90
2019-01-08T05:37:36.684Z,12.37
2019-01-08T05:40:04.659Z,16.20
2019-01-08T05:42:32.487Z,13.73
2019-01-08T05:45:00.298Z,15.10
2019-01-08T05:47:28.160Z,13.77
2019-01-08T05:49:56.200Z,12.03
2019-01-08T05:52:24.038Z,14.10
2019-01-08T05:54:51.884Z,15.30
2019-01-08T05:57:19.763Z,15.40
2019-01-08T05:59:49.832Z,14.80
2019-01-08T06:02:17.722Z,12.77
2019-01-08T06:04:45.543Z,14.63
2019-01-08T06:07:13.479Z,12.80
2019-01-08T06:09:41.433Z,16.47
2019-01-08T06:12:09.272Z,13.77
2019-01-08T06:14:37.107Z,14.60
2019-01-08T06:17:05.214Z,15.67
2019-01-08T06:19:33.202Z,16.13
2019-01-08T06:22:01.193Z,15.53
2019-01-08T06:24:29.037Z,15.27
2019-01-08T06:26:56.910Z,16.27
2019-01-08T06:29:24.803Z,14.50
2019-01-08T06:31:52.659Z,16.27
2019-01-08T06:34:20.487Z,17.00
2019-01-08T06:36:48.337Z,14.13
2019-01-08T06:39:16.294Z,15.67
2019-01-08T06:41:44.323Z,15.17
2019-01-08T06:44:12.253Z,13.90
2019-01-08T06:46:43.109Z,11.93
2019-01-08T06:49:10.600Z,19.07
2019-01-08T06:51:38.449Z,13.50
2019-01-08T06:54:06.333Z,17.13
2019-01-08T06:56:34.534Z,15.30
2019-01-08T06:59:03.382Z,13.67
2019-01-08T07:01:31.267Z,13.13
2019-01-08T07:03:59.113Z,17.30
2019-01-08T07:06:27.044Z,16.70
2019-01-08T07:08:56.373Z,17.00
2019-01-08T07:11:24.290Z,13.73
2019-01-08T07:13:52.155Z,13.30
2019-01-08T07:16:20.115Z,12.47
2019-01-08T07:18:47.970Z,15.20
2019-01-08T07:21:15.819Z,11.63
2019-01-08T07:23:43.859Z,14.23
2019-01-08T07:26:11.837Z,11.20
2019-01-08T07:28:41.134Z,13.10
2019-01-08T07:31:09.234Z,12.93
2019-01-08T07:33:37.059Z,10.50
2019-01-08T07:36:05.186Z,12.17
2019-01-08T07:38:33.215Z,12.00
2019-01-08T07:41:03.468Z,12.97
2019-01-08T07:43:31.372Z,15.10
2019-01-08T07:45:59.282Z,14.20
2019-01-08T07:48:27.223Z,13.57
2019-01-08T07:50:55.383Z,14.03
2019-01-08T07:53:23.420Z,14.10
2019-01-08T07:55:51.456Z,16.70
2019-01-08T07:58:19.685Z,15.37
2019-01-08T08:00:50.060Z,11.90
2019-01-08T08:03:17.400Z,14.70
2019-01-08T08:05:45.298Z,15.00
2019-01-08T08:08:13.158Z,13.27
2019-01-08T08:10:41.007Z,12.80
2019-01-08T08:13:08.888Z,14.90
2019-01-08T08:15:36.684Z,11.53
2019-01-08T08:18:04.825Z,10.47
2019-01-08T08:20:32.639Z,10.67
2019-01-08T08:23:00.461Z,10.10
2019-01-08T08:25:28.349Z,10.63
2019-01-08T08:27:56.257Z,11.83
2019-01-08T08:30:26.202Z,11.10
2019-01-08T08:32:54.430Z,9.70
2019-01-08T08:35:22.351Z,9.97
2019-01-08T08:37:50.309Z,10.50
2019-01-08T08:40:18.437Z,8.17
2019-01-08T08:42:46.248Z,8.53
2019-01-08T08:45:14.094Z,8.50
2019-01-08T08:47:41.958Z,7.73
2019-01-08T08:50:09.789Z,7.23
2019-01-08T08:52:37.606Z,7.47
2019-01-08T08:55:05.687Z,7.43
2019-01-08T08:57:33.591Z,6.90
2019-01-08T09:00:01.486Z,7.30
2019-01-08T09:02:29.487Z,6.20
2019-01-08T09:04:57.338Z,8.30
2019-01-08T09:07:25.169Z,6.60
2019-01-08T09:09:52.914Z,6.83
2019-01-08T09:12:20.724Z,5.43
2019-01-08T09:14:48.596Z,6.10
2019-01-08T09:17:16.477Z,5.60
2019-01-08T09:19:44.425Z,7.10
2019-01-08T09:22:12.217Z,6.13
2019-01-08T09:24:40.032Z,5.17
2019-01-08T09:27:08.161Z,5.53
2019-01-08T09:29:36.049Z,6.07
2019-01-08T09:32:03.929Z,4.70
2019-01-08T09:34:33.587Z,5.37
2019-01-08T09:37:01.445Z,6.40
2019-01-08T09:39:29.286Z,4.37
2019-01-08T09:41:57.270Z,3.63
2019-01-08T09:44:25.076Z,4.70
2019-01-08T09:46:52.942Z,3.37
2019-01-08T09:49:20.790Z,2.90
2019-01-08T09:51:48.620Z,4.77
2019-01-08T09:54:16.521Z,4.13
2019-01-08T09:56:45.255Z,3.50
2019-01-08T09:59:13.144Z,3.90
2019-01-08T10:01:41.004Z,3.83
2019-01-08T10:04:08.811Z,3.40
2019-01-08T10:06:36.620Z,4.27
2019-01-08T10:09:05.362Z,3.83
2019-01-08T10:11:33.211Z,4.13
2019-01-08T10:14:01.113Z,3.90
2019-01-08T10:16:28.961Z,4.03
2019-01-08T10:18:56.786Z,5.33
2019-01-08T10:21:24.671Z,3.80
2019-01-08T10:23:52.569Z,4.17
2019-01-08T10:26:20.401Z,4.03
2019-01-08T10:28:48.244Z,4.97
2019-01-08T10:31:16.059Z,4.30
2019-01-08T10:33:43.881Z,3.80
2019-01-08T10:36:11.791Z,4.40
2019-01-08T10:38:39.610Z,4.03
2019-01-08T10:41:07.562Z,4.93
2019-01-08T10:43:35.467Z,4.20
2019-01-08T10:46:03.293Z,4.50
2019-01-08T10:48:31.143Z,6.90
2019-01-08T10:50:59.185Z,7.00
2019-01-08T10:53:27.056Z,4.87
2019-01-08T10:55:54.877Z,3.17
2019-01-08T10:58:22.712Z,5.20
2019-01-08T11:00:50.543Z,4.83
2019-01-08T11:03:18.370Z,4.03
2019-01-08T11:05:46.247Z,5.00
2019-01-08T11:08:14.067Z,7.67
2019-01-08T11:10:41.967Z,4.40
2019-01-08T11:13:09.793Z,5.70
2019-01-08T11:15:37.974Z,6.43
2019-01-08T11:18:05.800Z,6.93
2019-01-08T11:20:33.623Z,4.80
2019-01-08T11:23:01.526Z,4.93
2019-01-08T11:25:29.495Z,4.93
2019-01-08T11:27:57.447Z,6.80
2019-01-08T11:30:25.331Z,7.07
2019-01-08T11:32:54.797Z,4.50
2019-01-08T11:35:22.890Z,5.00
2019-01-08T11:37:50.738Z,5.30
2019-01-08T11:40:18.584Z,8.93
2019-01-08T11:42:46.554Z,6.53
2019-01-08T11:45:14.462Z,10.00
2019-01-08T11:47:42.443Z,4.53
2019-01-08T11:50:10.282Z,4.50
2019-01-08T11:52:38.170Z,5.40
2019-01-08T11:55:06.009Z,6.60
2019-01-08T11:57:33.918Z,3.17
2019-01-08T12:00:01.744Z,5.13
2019-01-08T12:02:29.679Z,6.30
2019-01-08T12:04:57.493Z,4.60
2019-01-08T12:07:31.128Z,5.43
2019-01-08T12:09:54.973Z,10.73
2019-01-08T12:12:23.017Z,10.77
2019-01-08T12:14:50.995Z,6.33
2019-01-08T12:17:18.825Z,4.73
2019-01-08T12:19:47.019Z,7.13
2019-01-08T12:22:14.856Z,6.00
2019-01-08T12:24:42.703Z,6.00
2019-01-08T12:27:10.620Z,5.40
2019-01-08T12:29:38.521Z,4.90
2019-01-08T12:32:06.657Z,5.53
2019-01-08T12:34:34.585Z,2.60
2019-01-08T12:37:02.411Z,9.93
2019-01-08T12:39:30.277Z,8.07
2019-01-08T12:41:58.193Z,8.53
2019-01-08T12:44:26.037Z,6.20
2019-01-08T12:46:53.903Z,6.00
2019-01-08T12:49:21.725Z,5.90
2019-01-08T12:51:50.325Z,4.17
2019-01-08T12:54:18.152Z,5.23
2019-01-08T12:56:46.057Z,5.07
2019-01-08T12:59:14.036Z,9.60
2019-01-08T13:01:42.045Z,8.07
2019-01-08T13:04:10.742Z,6.40
2019-01-08T13:06:38.637Z,7.13
2019-01-08T13:09:07.922Z,6.97
2019-01-08T13:11:35.877Z,7.53
2019-01-08T13:14:03.742Z,3.60
2019-01-08T13:16:31.758Z,6.87
2019-01-08T13:18:59.722Z,6.90
2019-01-08T13:21:27.561Z,4.80
2019-01-08T13:23:55.439Z,8.53
2019-01-08T13:26:23.369Z,6.10
2019-01-08T13:28:51.472Z,6.60
2019-01-08T13:31:19.398Z,7.67
2019-01-08T13:33:47.239Z,5.27
2019-01-08T13:36:15.227Z,5.00
2019-01-08T13:38:43.065Z,6.13
2019-01-08T13:41:10.891Z,4.57
2019-01-08T13:43:38.900Z,4.70
2019-01-08T13:46:06.781Z,6.20
2019-01-08T13:48:34.648Z,5.73
2019-01-08T13:51:02.468Z,5.90
2019-01-08T13:53:30.342Z,10.43
2019-01-08T13:55:58.244Z,5.50
2019-01-08T13:58:26.103Z,4.97
2019-01-08T14:00:54.070Z,6.80
2019-01-08T14:03:22.002Z,13.50
2019-01-08T14:05:49.820Z,8.67
2019-01-08T14:08:17.626Z,6.10
2019-01-08T14:10:45.525Z,11.90
2019-01-08T14:13:13.646Z,5.90
2019-01-08T14:15:41.489Z,10.70
2019-01-08T14:18:09.328Z,4.20
2019-01-08T14:20:37.257Z,6.63
2019-01-08T14:23:05.106Z,5.90
2019-01-08T14:25:32.979Z,5.57
2019-01-08T14:28:00.824Z,4.23
2019-01-08T14:30:28.638Z,7.10
2019-01-08T14:32:56.711Z,5.00
2019-01-08T14:35:24.564Z,7.00
2019-01-08T14:37:52.451Z,8.07
2019-01-08T14:40:20.268Z,10.30
2019-01-08T14:42:48.136Z,5.00
2019-01-08T14:45:15.985Z,6.17
2019-01-08T14:47:44.658Z,8.00
2019-01-08T14:50:12.585Z,6.80
2019-01-08T14:52:40.429Z,4.57
2019-01-08T14:55:08.336Z,5.90
2019-01-08T14:57:36.157Z,5.83
2019-01-08T15:00:04.201Z,5.07
2019-01-08T15:02:32.370Z,5.63
2019-01-08T15:05:00.280Z,7.70
2019-01-08T15:07:28.052Z,6.70
2019-01-08T15:09:56.096Z,6.60
2019-01-08T15:12:23.929Z,7.80
2019-01-08T15:14:51.717Z,7.20
2019-01-08T15:17:19.633Z,5.97
2019-01-08T15:19:47.530Z,9.10
2019-01-08T15:22:15.810Z,9.50
2019-01-08T15:24:43.931Z,8.73
2019-01-08T15:27:11.865Z,8.30
2019-01-08T15:29:39.733Z,6.67
2019-01-08T15:32:07.625Z,6.37
2019-01-08T15:34:35.504Z,4.20
2019-01-08T15:37:03.642Z,6.10
2019-01-08T15:39:31.504Z,4.10
2019-01-08T15:41:59.368Z,10.47
2019-01-08T15:44:27.244Z,3.53
2019-01-08T15:46:55.200Z,7.80
2019-01-08T15:49:24.610Z,4.73
2019-01-08T15:51:52.613Z,8.33
2019-01-08T15:54:21.655Z,4.20
2019-01-08T15:56:49.850Z,3.87
2019-01-08T15:59:17.755Z,2.53
2019-01-08T16:01:45.613Z,5.27
2019-01-08T16:04:13.465Z,3.30
2019-01-08T16:06:41.311Z,6.50
2019-01-08T16:09:09.570Z,4.50
2019-01-08T16:11:37.647Z,5.00
2019-01-08T16:14:05.608Z,5.10
2019-01-08T16:16:33.461Z,2.10
2019-01-08T16:19:01.276Z,3.90
2019-01-08T16:21:30.743Z,2.07
2019-01-08T16:23:58.963Z,2.80
2019-01-08T16:26:26.889Z,4.00
2019-01-08T16:28:54.747Z,3.10
2019-01-08T16:31:22.648Z,6.00
2019-01-08T16:33:50.600Z,3.30
2019-01-08T16:36:19.337Z,4.80
2019-01-08T16:38:54.280Z,6.50
2019-01-08T16:41:22.447Z,2.70
2019-01-08T16:43:50.403Z,5.07
2019-01-08T16:46:18.200Z,4.63
2019-01-08T16:48:46.246Z,3.37
2019-01-08T16:51:14.169Z,4.17
2019-01-08T16:53:41.995Z,7.63
2019-01-08T16:56:11.281Z,5.37
2019-01-08T16:58:40.004Z,7.30
2019-01-08T17:01:09.536Z,4.30
2019-01-08T17:03:37.456Z,3.33
2019-01-08T17:06:05.564Z,4.50
2019-01-08T17:08:33.436Z,4.90
2019-01-08T17:11:01.756Z,4.60
2019-01-08T17:13:30.549Z,3.53
2019-01-08T17:15:58.374Z,3.10
2019-01-08T17:18:30.237Z,3.60
2019-01-08T17:20:58.106Z,3.70
2019-01-08T17:23:26.115Z,4.27
2019-01-08T17:25:53.932Z,6.43
2019-01-08T17:28:22.425Z,5.13
2019-01-08T17:30:50.288Z,5.70
2019-01-08T17:33:21.252Z,9.00
2019-01-08T17:35:49.098Z,3.80
2019-01-08T17:38:17.040Z,5.17
2019-01-08T17:40:44.875Z,8.80
2019-01-08T17:43:12.733Z,5.63
2019-01-08T17:45:40.634Z,8.40
2019-01-08T17:48:08.564Z,6.10
2019-01-08T17:50:36.566Z,4.67
2019-01-08T17:53:04.602Z,3.50
2019-01-08T17:55:32.512Z,4.80
2019-01-08T17:58:22.636Z,4.30
2019-01-08T18:00:50.575Z,6.93
2019-01-08T18:03:18.736Z,6.67
2019-01-08T18:05:46.601Z,7.80
2019-01-08T18:08:14.519Z,4.87
2019-01-08T18:10:42.424Z,6.27
2019-01-08T18:13:10.315Z,3.87
2019-01-08T18:15:38.278Z,6.00
2019-01-08T18:18:06.174Z,5.17
2019-01-08T18:20:34.047Z,3.67
2019-01-08T18:23:01.964Z,6.10
2019-01-08T18:25:29.857Z,2.33
2019-01-08T18:27:57.734Z,4.77
2019-01-08T18:30:25.552Z,5.53
2019-01-08T18:32:53.506Z,5.33
2019-01-08T18:35:24.191Z,4.03
2019-01-08T18:37:52.165Z,6.50
2019-01-08T18:40:22.827Z,5.23
2019-01-08T18:42:50.687Z,3.70
2019-01-08T18:45:18.607Z,2.67
2019-01-08T18:47:49.501Z,7.73
2019-01-08T18:50:18.871Z,6.57
2019-01-08T18:52:46.678Z,5.33
2019-01-08T18:55:14.551Z,3.90
2019-01-08T18:57:42.703Z,3.13
2019-01-08T19:00:10.550Z,5.43
2019-01-08T19:02:38.731Z,6.93
2019-01-08T19:05:07.860Z,4.70
2019-01-08T19:07:35.856Z,3.50
2019-01-08T19:10:06.957Z,6.00
2019-01-08T19:12:34.952Z,8.10
2019-01-08T19:15:02.786Z,2.30
2019-01-08T19:17:39.260Z,5.70
2019-01-08T19:20:07.135Z,4.37
2019-01-08T19:22:34.955Z,6.67
2019-01-08T19:25:03.054Z,9.73
2019-01-08T19:27:35.159Z,5.20
2019-01-08T19:30:03.432Z,4.60
2019-01-08T19:32:31.457Z,7.70
2019-01-08T19:34:59.440Z,11.27
2019-01-08T19:37:27.375Z,6.40
2019-01-08T19:39:55.302Z,4.60
2019-01-08T19:42:23.312Z,9.20
2019-01-08T19:44:51.392Z,6.10
2019-01-08T19:47:19.368Z,5.83
2019-01-08T19:49:47.526Z,8.00
2019-01-08T19:52:15.474Z,3.37
2019-01-08T19:54:43.310Z,3.57
2019-01-08T19:57:11.205Z,4.93
2019-01-08T19:59:39.039Z,5.00
2019-01-08T20:02:07.016Z,3.93
2019-01-08T20:04:34.910Z,9.03
2019-01-08T20:07:02.885Z,4.60
2019-01-08T20:09:30.765Z,7.00
2019-01-08T20:11:58.606Z,6.83
2019-01-08T20:14:26.810Z,6.50
2019-01-08T20:16:54.631Z,7.03
2019-01-08T20:19:22.421Z,5.90
2019-01-08T20:21:50.268Z,8.43
2019-01-08T20:24:18.472Z,5.80
2019-01-08T20:26:46.413Z,4.40
2019-01-08T20:29:14.317Z,7.80
2019-01-08T20:31:42.293Z,6.13
2019-01-08T20:34:10.165Z,5.60
2019-01-08T20:36:38.011Z,6.20
2019-01-08T20:39:08.225Z,10.23
2019-01-08T20:41:36.357Z,7.53
2019-01-08T20:44:04.366Z,6.00
2019-01-08T20:46:32.250Z,8.93
2019-01-08T20:49:02.520Z,7.50
2019-01-08T20:51:30.608Z,4.07
2019-01-08T20:53:58.517Z,6.57
2019-01-08T20:56:26.440Z,9.27
2019-01-08T20:58:54.469Z,5.23
2019-01-08T21:01:25.117Z,5.00
2019-01-08T21:03:52.965Z,9.10
2019-01-08T21:06:20.752Z,6.07
2019-01-08T21:08:48.665Z,7.70
2019-01-08T21:11:16.642Z,5.77
2019-01-08T21:13:44.486Z,4.57
2019-01-08T21:16:14.233Z,3.90
2019-01-08T21:18:46.094Z,4.50
2019-01-08T21:21:15.641Z,6.80
2019-01-08T21:23:43.577Z,5.43
2019-01-08T21:26:12.036Z,6.40
2019-01-08T21:28:40.845Z,4.87
2019-01-08T21:31:11.975Z,5.30
2019-01-08T21:33:43.030Z,5.20
2019-01-08T21:36:11.525Z,5.67
2019-01-08T21:38:41.940Z,5.00
2019-01-08T21:41:19.542Z,5.90
2019-01-08T21:43:53.503Z,6.67
2019-01-08T21:46:21.578Z,3.70
2019-01-08T21:48:50.069Z,3.50
2019-01-08T21:51:18.407Z,6.97
2019-01-08T21:53:46.547Z,4.30
2019-01-08T21:56:14.943Z,4.23
2019-01-08T21:58:45.114Z,7.27
2019-01-08T22:01:21.235Z,5.80
2019-01-08T22:03:51.812Z,3.13
2019-01-08T22:06:19.943Z,6.33
2019-01-08T22:08:47.789Z,4.20
2019-01-08T22:11:15.656Z,6.60
2019-01-08T22:13:44.894Z,4.63
2019-01-08T22:16:12.762Z,5.40
2019-01-08T22:18:40.582Z,4.43
2019-01-08T22:21:08.512Z,4.53
2019-01-08T22:23:37.109Z,5.27
2019-01-08T22:26:04.997Z,6.10
2019-01-08T22:28:32.851Z,7.07
2019-01-08T22:31:01.241Z,5.60
2019-01-08T22:33:29.089Z,7.33
2019-01-08T22:35:57.011Z,5.23
2019-01-08T22:38:24.879Z,7.60
2019-01-08T22:40:52.744Z,4.27
2019-01-08T22:43:20.611Z,7.83
2019-01-08T22:45:48.493Z,7.50
2019-01-08T22:48:16.363Z,4.60
2019-01-08T22:50:45.543Z,9.37
2019-01-08T22:53:14.504Z,5.10
2019-01-08T22:55:42.360Z,8.33
2019-01-08T22:58:09.979Z,8.10
2019-01-08T23:00:55.960Z,8.50
2019-01-08T23:03:24.027Z,5.73
2019-01-08T23:05:52.133Z,7.60
2019-01-08T23:08:19.941Z,4.77
2019-01-08T23:10:48.091Z,5.97
2019-01-08T23:13:16.178Z,4.90
2019-01-08T23:15:44.121Z,9.03
2019-01-08T23:18:11.973Z,3.60
2019-01-08T23:20:40.287Z,4.30
2019-01-08T23:23:08.083Z,9.07
2019-01-08T23:25:35.954Z,8.10
2019-01-08T23:28:03.904Z,7.10
2019-01-08T23:30:31.703Z,4.10
2019-01-08T23:32:59.525Z,6.87
2019-01-08T23:35:27.322Z,3.63
2019-01-08T23:37:55.230Z,5.73
2019-01-08T23:40:23.379Z,7.60
2019-01-08T23:42:51.200Z,5.93
2019-01-08T23:45:19.256Z,3.83
2019-01-08T23:47:47.146Z,4.73
2019-01-08T23:50:14.977Z,5.23
2019-01-08T23:52:48.651Z,5.80
2019-01-08T23:55:16.792Z,5.43
2019-01-08T23:57:46.063Z,4.57
